Time;durP1;ratioP1;P1;durP2;ratioP2;P2;SDS_P1;SDS_P2;PMS_P1;PMS_P2;Temp;Humidity;BMP_temperature;BMP_pressure;BME280_temperature;BME280_humidity;BME280_pressure;Samples;Min_cycle;Max_cycle;Signal;HPM_P1;HPM_P2
2022/08/20 00:00:31;;;;;;;6.93;6.20;;;;;;;21.26;100.00;98858.00;5135100;27;20218;-81
2022/08/20 00:03:03;;;;;;;7.83;6.00;;;;;;;21.26;100.00;98858.00;5133636;27;20254;-80
2022/08/20 00:05:34;;;;;;;11.77;6.30;;;;;;;21.21;100.00;98854.97;5136560;27;20221;-80
2022/08/20 00:08:04;;;;;;;5.70;5.20;;;;;;;21.24;100.00;98857.34;5136320;27;20194;-80
2022/08/20 00:10:36;;;;;;;7.37;5.93;;;;;;;21.25;100.00;98861.72;5132031;27;20198;-80
2022/08/20 00:13:08;;;;;;;8.17;5.77;;;;;;;21.24;100.00;98858.16;5136111;27;20202;-80
2022/08/20 00:15:41;;;;;;;6.40;5.70;;;;;;;21.06;100.00;98857.56;5134411;27;20749;-80
2022/08/20 00:18:12;;;;;;;10.73;5.90;;;;;;;21.08;100.00;98845.59;5134111;27;20644;-80
2022/08/20 00:20:44;;;;;;;8.10;6.20;;;;;;;21.12;100.00;98851.44;5133849;27;20210;-80
2022/08/20 00:23:14;;;;;;;7.57;5.87;;;;;;;21.14;100.00;98852.97;5084230;27;20197;-80
2022/08/20 00:25:46;;;;;;;8.20;5.90;;;;;;;21.08;100.00;98850.97;5125489;27;20671;-80
2022/08/20 00:28:15;;;;;;;6.80;5.53;;;;;;;21.07;100.00;98853.84;5131409;27;20229;-81
2022/08/20 00:30:47;;;;;;;6.70;5.90;;;;;;;21.14;100.00;98852.97;5127174;27;20273;-80
2022/08/20 00:33:20;;;;;;;7.30;6.17;;;;;;;20.93;100.00;98858.06;5137019;27;20228;-81
2022/08/20 00:35:56;;;;;;;8.43;6.27;;;;;;;20.94;100.00;98861.59;5137087;27;20202;-80
2022/08/20 00:38:36;;;;;;;7.83;5.53;;;;;;;20.84;100.00;98856.41;5135109;27;20267;-80
2022/08/20 00:41:10;;;;;;;8.83;5.93;;;;;;;20.84;100.00;98862.66;5135320;27;20218;-80
2022/08/20 00:43:40;;;;;;;9.80;6.00;;;;;;;20.78;100.00;98852.56;5096247;27;20218;-79
2022/08/20 00:46:15;;;;;;;8.73;5.93;;;;;;;20.82;100.00;98866.50;5123675;27;20209;-80
2022/08/20 00:48:48;;;;;;;6.37;5.70;;;;;;;20.83;100.00;98865.50;5132858;27;20190;-80
2022/08/20 00:51:26;;;;;;;8.63;5.33;;;;;;;21.09;100.00;98873.34;5132360;27;20279;-81
2022/08/20 00:54:04;;;;;;;7.63;5.70;;;;;;;21.00;100.00;98867.16;5130028;27;20701;-81
2022/08/20 00:56:35;;;;;;;6.63;5.63;;;;;;;20.86;100.00;98874.09;5129256;27;20200;-81
2022/08/20 00:59:10;;;;;;;6.20;5.50;;;;;;;20.89;100.00;98878.28;5133052;27;20197;-81
2022/08/20 01:01:42;;;;;;;8.37;5.70;;;;;;;20.82;100.00;98874.56;5128174;27;20220;-81
2022/08/20 01:04:23;;;;;;;6.50;5.83;;;;;;;20.93;100.00;98868.84;5134227;28;20277;-81
2022/08/20 01:06:52;;;;;;;9.07;6.17;;;;;;;20.85;100.00;98869.72;5081895;28;20194;-81
2022/08/20 01:09:21;;;;;;;7.20;6.07;;;;;;;20.80;100.00;98865.84;5096444;28;20192;-81
2022/08/20 01:12:13;;;;;;;8.37;5.77;;;;;;;20.77;100.00;98864.34;5134246;28;20194;-81
2022/08/20 01:14:45;;;;;;;7.40;6.53;;;;;;;20.68;100.00;98873.44;5133160;28;20221;-81
2022/08/20 01:17:20;;;;;;;11.07;6.43;;;;;;;20.54;100.00;98876.78;5122988;28;20197;-81
2022/08/20 01:19:55;;;;;;;8.47;6.67;;;;;;;20.42;100.00;98878.09;5129856;28;20201;-81
2022/08/20 01:25:29;;;;;;;8.73;6.33;;;;;;;20.49;100.00;98881.84;5138241;27;20273;-81
2022/08/20 01:28:01;;;;;;;8.57;6.97;;;;;;;20.40;100.00;98883.66;5130508;27;20225;-81
2022/08/20 01:30:31;;;;;;;6.87;6.10;;;;;;;20.47;100.00;98890.09;5137003;27;20293;-81
2022/08/20 01:33:01;;;;;;;13.63;6.60;;;;;;;20.45;100.00;98885.88;5049190;28;20271;-81
2022/08/20 01:35:29;;;;;;;9.37;6.63;;;;;;;20.58;100.00;98883.53;5044106;28;20208;-81
2022/08/20 01:37:58;;;;;;;6.63;5.90;;;;;;;20.56;100.00;98889.09;5052151;28;20189;-81
2022/08/20 01:40:44;;;;;;;8.00;6.17;;;;;;;20.58;100.00;98889.75;5049138;28;20212;-81
2022/08/20 01:43:16;;;;;;;7.37;6.10;;;;;;;20.51;100.00;98893.28;5044569;28;20228;-81
2022/08/20 01:45:47;;;;;;;6.90;5.70;;;;;;;20.60;100.00;98894.97;5050620;28;20216;-81
2022/08/20 01:48:18;;;;;;;8.20;5.90;;;;;;;20.61;100.00;98899.34;5005755;28;20193;-81
2022/08/20 01:50:57;;;;;;;7.10;5.70;;;;;;;20.59;100.00;98890.59;5082903;27;20199;-80
2022/08/20 01:53:32;;;;;;;7.37;5.83;;;;;;;20.57;100.00;98890.75;5135900;27;20201;-81
2022/08/20 01:56:01;;;;;;;8.57;5.37;;;;;;;20.55;100.00;98897.31;5134635;27;20190;-81
2022/08/20 01:58:33;;;;;;;8.10;5.43;;;;;;;20.67;100.00;98892.44;5129015;27;20218;-80
2022/08/20 02:01:02;;;;;;;9.00;5.37;;;;;;;20.71;100.00;98904.53;5132452;27;20246;-80
2022/08/20 02:03:31;;;;;;;7.43;5.13;;;;;;;20.56;100.00;98907.94;5134513;27;20194;-81
2022/08/20 02:06:06;;;;;;;6.73;5.23;;;;;;;20.60;100.00;98908.41;5136100;27;20273;-80
2022/08/20 02:08:37;;;;;;;6.37;4.87;;;;;;;20.54;100.00;98907.22;5130038;27;20190;-81
2022/08/20 02:11:06;;;;;;;6.90;5.50;;;;;;;20.56;100.00;98915.16;5129730;27;20222;-81
2022/08/20 02:13:39;;;;;;;8.17;5.20;;;;;;;20.58;100.00;98905.06;5133654;27;20260;-81
2022/08/20 02:16:14;;;;;;;7.90;4.93;;;;;;;20.62;100.00;98906.38;5131327;27;20595;-80
2022/08/20 02:18:43;;;;;;;5.67;4.73;;;;;;;20.54;100.00;98911.78;5132295;27;20193;-80
2022/08/20 02:21:11;;;;;;;6.13;5.03;;;;;;;20.60;100.00;98910.28;5084654;27;20241;-81
2022/08/20 02:23:41;;;;;;;7.17;4.67;;;;;;;20.53;100.00;98908.25;5101089;27;20203;-81
2022/08/20 02:26:10;;;;;;;6.73;5.00;;;;;;;20.54;100.00;98918.00;5143130;27;20202;-80
2022/08/20 02:28:41;;;;;;;6.33;5.40;;;;;;;20.57;100.00;98916.84;5143578;27;20205;-80
2022/08/20 02:31:09;;;;;;;5.90;4.63;;;;;;;20.51;100.00;98909.44;5134023;27;20190;-80
2022/08/20 02:33:37;;;;;;;7.30;5.53;;;;;;;20.56;100.00;98907.09;5076787;27;20193;-80
2022/08/20 02:36:07;;;;;;;6.50;5.33;;;;;;;20.60;100.00;98907.56;5129113;27;20201;-80
2022/08/20 02:38:38;;;;;;;7.73;5.50;;;;;;;20.69;100.00;98915.47;5134306;27;20660;-81
2022/08/20 02:41:07;;;;;;;6.73;5.00;;;;;;;20.68;100.00;98916.50;5137213;27;20214;-80
2022/08/20 02:43:36;;;;;;;5.93;5.10;;;;;;;20.65;100.00;98915.97;5134046;27;20261;-80
2022/08/20 02:46:08;;;;;;;8.40;4.90;;;;;;;20.56;100.00;98916.00;5132878;27;20326;-80
2022/08/20 02:48:39;;;;;;;6.10;5.10;;;;;;;20.68;100.00;98923.72;5129590;27;20208;-80
2022/08/20 02:51:08;;;;;;;6.80;5.00;;;;;;;20.74;100.00;98915.81;5102435;27;20202;-80
2022/08/20 02:53:42;;;;;;;7.03;5.10;;;;;;;20.64;100.00;98920.50;5137085;27;20285;-81
2022/08/20 02:56:12;;;;;;;7.57;5.30;;;;;;;20.61;100.00;98914.63;5137072;27;20233;-80
2022/08/20 02:58:43;;;;;;;5.90;5.10;;;;;;;20.62;100.00;98909.09;5136738;27;20198;-80
2022/08/20 03:01:16;;;;;;;6.17;5.50;;;;;;;20.54;100.00;98906.38;5132139;27;20278;-80
2022/08/20 03:03:51;;;;;;;8.77;5.50;;;;;;;20.47;100.00;98914.31;5135386;27;20672;-80
2022/08/20 03:06:21;;;;;;;7.77;5.30;;;;;;;20.54;100.00;98912.59;5129143;27;20194;-80
2022/08/20 03:08:50;;;;;;;7.80;5.87;;;;;;;20.50;100.00;98905.88;5137840;27;20194;-80
2022/08/20 03:11:19;;;;;;;6.07;5.47;;;;;;;20.44;100.00;98901.16;5136091;27;20668;-81
2022/08/20 03:13:48;;;;;;;11.33;5.47;;;;;;;20.39;100.00;98913.44;5130380;27;20225;-80
2022/08/20 03:16:18;;;;;;;6.83;5.50;;;;;;;20.53;100.00;98905.53;5127327;27;20198;-80
2022/08/20 03:18:48;;;;;;;5.70;5.20;;;;;;;20.37;100.00;98916.28;5136203;27;20214;-80
2022/08/20 03:21:19;;;;;;;6.60;5.47;;;;;;;20.32;100.00;98918.63;5133788;27;20282;-80
2022/08/20 03:23:48;;;;;;;6.50;5.60;;;;;;;20.34;100.00;98913.91;5131355;27;20189;-81
2022/08/20 03:26:16;;;;;;;7.43;4.97;;;;;;;20.38;100.00;98917.97;5136196;27;20225;-81
2022/08/20 03:28:44;;;;;;;7.33;5.80;;;;;;;20.50;100.00;98924.72;5130876;27;20251;-80
2022/08/20 03:31:17;;;;;;;7.57;5.90;;;;;;;20.60;100.00;98924.56;5135078;27;20277;-80
2022/08/20 03:33:46;;;;;;;6.13;5.53;;;;;;;20.55;100.00;98921.53;5132866;27;20298;-80
2022/08/20 03:36:20;;;;;;;6.50;5.87;;;;;;;20.60;100.00;98913.81;5128082;27;20197;-81
2022/08/20 03:38:56;;;;;;;6.60;5.90;;;;;;;20.64;100.00;98912.44;5129997;27;20200;-80
2022/08/20 03:41:25;;;;;;;6.57;5.63;;;;;;;20.64;100.00;98907.06;5132738;27;20199;-81
2022/08/20 03:43:54;;;;;;;6.60;5.63;;;;;;;20.64;100.00;98908.91;5126470;27;20747;-80
2022/08/20 03:46:25;;;;;;;6.07;5.47;;;;;;;20.66;100.00;98912.31;5088420;28;20203;-80
2022/08/20 03:48:55;;;;;;;7.60;5.47;;;;;;;20.71;100.00;98920.69;5089891;28;20188;-80
2022/08/20 03:51:30;;;;;;;6.03;5.53;;;;;;;20.57;100.00;98917.69;5085770;28;20203;-80
2022/08/20 03:54:03;;;;;;;6.50;5.90;;;;;;;20.65;100.00;98927.56;5084986;28;20195;-81
2022/08/20 03:56:31;;;;;;;7.47;5.70;;;;;;;20.62;100.00;98927.09;5084892;28;20210;-80
2022/08/20 03:59:00;;;;;;;7.07;6.37;;;;;;;20.60;100.00;98927.25;5088452;28;20227;-81
2022/08/20 04:01:32;;;;;;;9.77;6.80;;;;;;;20.56;100.00;98915.16;5087663;28;20643;-81
2022/08/20 04:04:13;;;;;;;7.40;6.73;;;;;;;20.54;100.00;98925.22;5091231;28;20195;-80
2022/08/20 04:06:42;;;;;;;8.27;7.37;;;;;;;20.63;100.00;98920.69;5091980;28;20246;-80
2022/08/20 04:09:10;;;;;;;8.60;7.90;;;;;;;20.55;100.00;98924.22;5092111;28;20705;-80
2022/08/20 04:11:39;;;;;;;8.87;8.07;;;;;;;20.61;100.00;98925.41;5113840;27;20274;-80
2022/08/20 04:14:09;;;;;;;9.50;8.60;;;;;;;20.68;100.00;98915.66;5125944;27;20566;-80
2022/08/20 04:16:40;;;;;;;8.70;7.90;;;;;;;20.70;100.00;98919.84;5124994;27;20200;-81
2022/08/20 04:19:09;;;;;;;8.83;7.93;;;;;;;20.64;100.00;98920.50;5134802;27;20661;-80
2022/08/20 04:21:38;;;;;;;8.60;7.80;;;;;;;20.62;100.00;98921.69;5134780;27;20202;-80
2022/08/20 04:24:07;;;;;;;9.60;8.60;;;;;;;20.61;100.00;98918.16;5126151;27;20222;-80
2022/08/20 04:26:50;;;;;;;9.10;8.17;;;;;;;20.63;100.00;98920.69;5130659;27;20198;-81
2022/08/20 04:29:18;;;;;;;9.57;8.70;;;;;;;20.64;100.00;98920.50;5127922;27;20217;-81
2022/08/20 04:31:48;;;;;;;10.27;9.37;;;;;;;20.61;100.00;98928.09;5131517;27;20270;-81
2022/08/20 04:34:17;;;;;;;10.07;9.17;;;;;;;20.58;100.00;98938.19;5127082;27;20199;-80
2022/08/20 04:36:47;;;;;;;11.10;9.23;;;;;;;20.65;100.00;98927.56;5125568;27;20202;-81
2022/08/20 04:39:16;;;;;;;10.07;9.17;;;;;;;20.57;100.00;98941.91;5128772;27;20202;-80
2022/08/20 04:41:45;;;;;;;10.13;9.07;;;;;;;20.67;100.00;98936.34;5126451;27;20209;-80
2022/08/20 04:44:14;;;;;;;9.43;8.53;;;;;;;20.69;100.00;98938.88;5124645;27;20222;-80
2022/08/20 04:46:43;;;;;;;8.93;8.23;;;;;;;20.64;100.00;98941.22;5128179;27;20190;-80
2022/08/20 04:49:13;;;;;;;9.07;8.27;;;;;;;20.67;100.00;98940.91;5127639;27;20273;-80
2022/08/20 04:51:42;;;;;;;9.70;8.77;;;;;;;20.65;100.00;98946.41;5126064;27;20285;-81
2022/08/20 04:54:13;;;;;;;9.80;8.80;;;;;;;20.51;100.00;98936.34;5127969;27;20198;-80
2022/08/20 04:56:41;;;;;;;10.47;9.37;;;;;;;20.35;100.00;98947.88;5067724;28;20266;-81
2022/08/20 04:59:10;;;;;;;11.27;9.80;;;;;;;20.44;100.00;98952.28;5068176;28;20342;-80
2022/08/20 05:01:38;;;;;;;10.20;9.07;;;;;;;20.36;100.00;98954.09;5066255;28;20271;-80
2022/08/20 05:04:06;;;;;;;12.27;10.10;;;;;;;20.35;100.00;98966.69;5066521;28;20236;-81
2022/08/20 05:06:37;;;;;;;12.17;10.90;;;;;;;20.34;100.00;98974.94;5064699;28;20219;-80
2022/08/20 05:09:05;;;;;;;13.33;10.53;;;;;;;20.40;100.00;98974.28;5064208;28;20279;-81
2022/08/20 05:11:34;;;;;;;11.57;10.47;;;;;;;20.09;100.00;98982.97;5058175;28;20193;-80
2022/08/20 05:14:07;;;;;;;11.40;10.30;;;;;;;20.06;100.00;98974.34;5071802;28;20194;-81
2022/08/20 05:16:38;;;;;;;11.77;10.73;;;;;;;20.04;100.00;98977.22;5125366;28;20224;-80
2022/08/20 05:19:07;;;;;;;12.33;11.13;;;;;;;20.19;100.00;98982.81;5128483;28;20235;-80
2022/08/20 05:21:39;;;;;;;12.87;11.63;;;;;;;20.19;100.00;98974.75;5131600;28;20216;-81
2022/08/20 05:24:10;;;;;;;11.90;10.70;;;;;;;20.33;100.00;98981.34;5130120;28;20222;-80
2022/08/20 05:26:39;;;;;;;12.47;11.00;;;;;;;20.50;100.00;98983.94;5130537;28;20191;-80
2022/08/20 05:29:08;;;;;;;12.17;11.03;;;;;;;20.36;100.00;98989.91;5132712;28;20202;-81
2022/08/20 05:31:37;;;;;;;14.37;11.27;;;;;;;20.35;100.00;98988.22;5131041;28;20222;-80
2022/08/20 05:34:08;;;;;;;12.63;11.37;;;;;;;20.27;100.00;98997.13;5125850;28;20198;-80
2022/08/20 05:36:44;;;;;;;12.87;11.57;;;;;;;20.33;100.00;99001.00;5128725;28;20186;-80
2022/08/20 05:39:15;;;;;;;12.67;11.47;;;;;;;20.52;100.00;98989.97;5086232;28;20252;-79
2022/08/20 05:41:43;;;;;;;13.67;11.70;;;;;;;20.43;100.00;98995.50;5090906;28;20196;-81
2022/08/20 05:44:14;;;;;;;12.13;10.90;;;;;;;20.55;100.00;98996.88;5086743;28;20219;-80
2022/08/20 05:46:45;;;;;;;11.70;10.50;;;;;;;20.53;100.00;98994.34;5085495;28;20203;-80
2022/08/20 05:49:18;;;;;;;10.80;9.70;;;;;;;20.47;100.00;98997.72;5053198;28;20238;-80
2022/08/20 05:51:49;;;;;;;12.93;11.63;;;;;;;20.43;100.00;99003.59;5085541;28;20199;-81
2022/08/20 05:54:18;;;;;;;12.33;11.23;;;;;;;20.44;100.00;99007.97;5085357;28;20204;-81
2022/08/20 05:56:46;;;;;;;12.73;11.53;;;;;;;20.50;100.00;99008.16;5094629;28;20195;-80
2022/08/20 05:59:15;;;;;;;12.87;11.63;;;;;;;20.43;100.00;99003.59;5132458;28;20186;-80
2022/08/20 06:01:49;;;;;;;13.57;12.37;;;;;;;20.46;100.00;99008.63;5127512;28;20185;-81
2022/08/20 06:04:26;;;;;;;12.20;10.70;;;;;;;20.61;100.00;99008.84;5123746;28;20222;-80
2022/08/20 06:07:03;;;;;;;12.50;11.40;;;;;;;20.56;100.00;99012.88;5126827;28;20209;-80
2022/08/20 06:09:35;;;;;;;12.00;10.80;;;;;;;20.53;100.00;99013.19;5131012;27;20228;-80
2022/08/20 06:12:07;;;;;;;13.67;11.70;;;;;;;20.65;100.00;99015.56;5130323;27;20193;-80
2022/08/20 06:14:37;;;;;;;13.07;11.83;;;;;;;20.36;100.00;99024.03;5128549;27;20201;-80
2022/08/20 06:17:08;;;;;;;12.47;11.23;;;;;;;20.54;100.00;99027.47;5070929;28;20192;-80
2022/08/20 06:19:37;;;;;;;12.33;11.17;;;;;;;20.65;100.00;99023.63;5066656;28;20192;-81
2022/08/20 06:22:12;;;;;;;12.13;11.03;;;;;;;20.78;100.00;99022.16;5068986;28;20220;-80
2022/08/20 06:24:51;;;;;;;13.53;10.70;;;;;;;20.67;100.00;99019.78;5068641;28;20227;-80
2022/08/20 06:27:20;;;;;;;12.90;11.63;;;;;;;20.52;100.00;99019.59;5065898;28;20200;-80
2022/08/20 06:29:53;;;;;;;11.83;10.70;;;;;;;20.70;100.00;99024.00;5069052;28;20192;-80
2022/08/20 06:32:25;;;;;;;12.90;11.60;;;;;;;20.75;100.00;99032.41;5021605;28;20306;-80
2022/08/20 06:35:02;;;;;;;11.63;10.53;;;;;;;20.76;100.00;99026.03;5094463;27;20186;-80
2022/08/20 06:37:35;;;;;;;12.17;11.07;;;;;;;20.90;100.00;99021.81;5131126;27;20269;-80
2022/08/20 06:40:08;;;;;;;12.10;10.90;;;;;;;20.91;100.00;99021.66;5131235;27;20206;-81
2022/08/20 06:42:42;;;;;;;12.03;10.87;;;;;;;21.08;100.00;99007.19;5130811;27;20226;-80
2022/08/20 06:45:19;;;;;;;12.40;11.20;;;;;;;21.02;100.00;99010.53;5129892;27;20210;-80
2022/08/20 06:47:47;;;;;;;11.60;10.60;;;;;;;21.17;100.00;99005.34;5131241;27;20230;-81
2022/08/20 06:50:19;;;;;;;12.20;11.10;;;;;;;21.32;100.00;98994.72;5126097;27;20201;-80
2022/08/20 06:52:49;;;;;;;12.23;11.03;;;;;;;21.30;100.00;99004.84;5133961;27;20182;-80
2022/08/20 06:55:21;;;;;;;11.93;10.83;;;;;;;21.22;100.00;99005.66;5133123;27;20273;-80
2022/08/20 06:57:58;;;;;;;11.57;10.40;;;;;;;21.26;100.00;99004.34;5127610;27;20209;-80
2022/08/20 07:00:31;;;;;;;10.83;9.93;;;;;;;21.29;100.00;99000.47;5066126;28;20200;-80
2022/08/20 07:03:01;;;;;;;11.87;10.73;;;;;;;21.48;100.00;99013.56;5070662;28;20706;-80
2022/08/20 07:05:30;;;;;;;11.70;10.70;;;;;;;21.55;100.00;99005.66;5071598;28;20216;-81
2022/08/20 07:08:03;;;;;;;10.97;9.87;;;;;;;21.77;100.00;98995.97;5069670;28;20192;-80
2022/08/20 07:10:32;;;;;;;10.70;9.80;;;;;;;21.74;100.00;98994.47;5068412;28;20199;-80
2022/08/20 07:13:00;;;;;;;10.67;9.70;;;;;;;22.02;100.00;99000.28;5072500;28;20197;-80
2022/08/20 07:15:29;;;;;;;10.73;9.60;;;;;;;21.91;100.00;98998.81;5065530;28;20224;-80
2022/08/20 07:17:59;;;;;;;11.53;10.53;;;;;;;21.91;100.00;99001.50;5085904;27;20198;-81
2022/08/20 07:20:30;;;;;;;11.23;10.13;;;;;;;21.72;100.00;99001.91;5135477;27;20207;-80
2022/08/20 07:22:59;;;;;;;9.83;8.90;;;;;;;21.78;100.00;99008.44;5129144;27;20201;-80
2022/08/20 07:25:32;;;;;;;11.00;9.97;;;;;;;21.84;100.00;99002.38;5127771;27;20214;-80
2022/08/20 07:28:04;;;;;;;9.20;8.43;;;;;;;21.95;100.00;99012.78;5065909;28;20215;-79
2022/08/20 07:33:25;;;;;;;10.07;9.18;;;;;;;22.46;100.00;98999.72;5072456;28;20192;-80
2022/08/20 07:35:55;;;;;;;8.43;7.72;;;;;;;22.40;100.00;99004.00;5062724;28;20205;-80
2022/08/20 07:38:25;;;;;;;8.77;7.93;;;;;;;22.64;100.00;98991.34;5067625;28;20351;-80
2022/08/20 07:40:58;;;;;;;8.37;7.63;;;;;;;22.83;100.00;99007.91;5066308;28;20276;-80
2022/08/20 07:43:27;;;;;;;7.63;6.93;;;;;;;22.90;100.00;98996.44;5072091;28;20310;-80
2022/08/20 07:45:59;;;;;;;7.88;7.18;;;;;;;22.91;100.00;98992.72;5091124;27;20212;-80
2022/08/20 07:48:29;;;;;;;8.50;7.80;;;;;;;23.12;100.00;98993.69;5135358;27;20194;-80
2022/08/20 07:51:02;;;;;;;7.53;6.80;;;;;;;23.24;100.00;98996.78;5130987;27;20198;-80
2022/08/20 07:53:32;;;;;;;6.97;6.40;;;;;;;23.48;100.00;98984.06;5132578;27;20191;-81
2022/08/20 07:56:08;;;;;;;7.95;7.05;;;;;;;23.60;100.00;98994.28;5130083;27;20194;-81
2022/08/20 07:58:42;;;;;;;7.53;6.82;;;;;;;23.59;100.00;98995.31;5128506;27;20201;-81
2022/08/20 08:01:11;;;;;;;6.72;6.22;;;;;;;23.48;100.00;98994.88;5130704;27;20197;-80
2022/08/20 08:03:42;;;;;;;6.60;6.10;;;;;;;23.43;100.00;99007.09;5132403;27;20268;-80
2022/08/20 08:06:19;;;;;;;6.43;5.88;;;;;;;23.02;100.00;99001.22;5133008;27;20209;-81
2022/08/20 08:09:02;;;;;;;6.10;5.60;;;;;;;23.50;100.00;98998.25;5132798;27;20197;-81
2022/08/20 08:11:36;;;;;;;6.07;5.57;;;;;;;23.57;100.00;99001.91;5131727;27;20198;-81
2022/08/20 08:14:06;;;;;;;6.22;5.72;;;;;;;23.48;100.00;98998.44;5130280;27;20789;-81
2022/08/20 08:16:36;;;;;;;6.65;6.07;;;;;;;23.60;100.00;98988.88;5132033;27;20194;-80
2022/08/20 08:19:07;;;;;;;6.90;5.78;;;;;;;23.87;100.00;98994.66;5131571;27;20201;-81
2022/08/20 08:21:36;;;;;;;8.18;6.32;;;;;;;23.86;100.00;98993.81;5127066;27;20278;-80
2022/08/20 08:24:05;;;;;;;6.00;5.50;;;;;;;23.95;100.00;98995.41;5127997;27;20273;-81
2022/08/20 08:26:35;;;;;;;4.93;4.43;;;;;;;23.90;100.00;98994.28;5124842;27;20198;-81
2022/08/20 08:29:06;;;;;;;5.25;4.85;;;;;;;23.56;100.00;98997.50;5133542;27;20202;-80
2022/08/20 08:31:35;;;;;;;5.03;4.57;;;;;;;23.68;100.00;98988.78;5099449;28;20214;-81
2022/08/20 08:34:06;;;;;;;4.90;4.50;;;;;;;23.49;100.00;98989.28;5131572;27;20274;-81
2022/08/20 08:36:34;;;;;;;4.43;4.03;;;;;;;23.26;100.00;98994.78;5131912;27;20223;-81
2022/08/20 08:39:03;;;;;;;4.80;4.50;;;;;;;23.72;100.00;98985.69;5130732;27;20637;-80
2022/08/20 08:41:37;;;;;;;4.95;4.50;;;;;;;24.03;100.00;98994.47;5127520;27;20202;-80
2022/08/20 08:44:09;;;;;;;4.55;4.20;;;;;;;23.80;100.00;98988.31;5130234;27;20851;-80
2022/08/20 08:46:41;;;;;;;5.45;5.03;;;;;;;24.01;100.00;98987.53;5128492;27;20237;-80
2022/08/20 08:49:13;;;;;;;5.30;4.80;;;;;;;24.05;100.00;98987.00;5091061;28;20215;-80
2022/08/20 08:51:45;;;;;;;5.38;4.88;;;;;;;24.18;100.00;98994.44;5048472;28;20191;-80
2022/08/20 08:54:17;;;;;;;4.28;3.97;;;;;;;24.05;100.00;98994.28;5088546;28;20188;-80
2022/08/20 08:56:47;;;;;;;4.03;3.72;;;;;;;23.64;100.00;99001.00;5088570;28;20204;-80
2022/08/20 08:59:18;;;;;;;4.10;3.80;;;;;;;23.66;100.00;99001.66;5083500;28;20192;-80
2022/08/20 09:01:49;;;;;;;4.38;3.97;;;;;;;23.58;100.00;99012.53;5085152;28;20203;-80
2022/08/20 09:04:32;;;;;;;5.03;4.53;;;;;;;23.69;100.00;99003.97;5089903;28;20274;-80
2022/08/20 09:07:03;;;;;;;4.80;4.40;;;;;;;23.76;100.00;99004.09;5103579;28;20273;-80
2022/08/20 09:09:36;;;;;;;5.22;4.72;;;;;;;23.51;100.00;98999.91;5095397;28;20197;-80
2022/08/20 09:12:10;;;;;;;4.65;4.25;;;;;;;23.64;100.00;99006.41;5124549;28;20201;-80
2022/08/20 09:14:39;;;;;;;5.13;4.72;;;;;;;23.21;100.00;99013.38;5089904;28;20222;-80
2022/08/20 09:17:08;;;;;;;4.45;4.13;;;;;;;23.23;100.00;99008.63;5085884;28;20195;-80
2022/08/20 09:19:37;;;;;;;4.40;4.10;;;;;;;23.46;100.00;99018.56;5083381;28;20208;-80
2022/08/20 09:22:10;;;;;;;5.18;4.20;;;;;;;23.75;100.00;99015.09;5086129;28;20200;-81
2022/08/20 09:24:39;;;;;;;5.20;4.80;;;;;;;23.20;100.00;99014.41;5049285;28;20212;-80
2022/08/20 09:27:11;;;;;;;4.93;4.53;;;;;;;23.54;100.00;99011.19;5045745;28;20197;-81
2022/08/20 09:29:40;;;;;;;4.88;4.47;;;;;;;23.56;100.00;99021.84;5032127;28;20197;-80
2022/08/20 09:32:12;;;;;;;5.22;4.82;;;;;;;23.51;100.00;99024.25;5050300;28;20192;-80
2022/08/20 09:34:44;;;;;;;5.47;4.90;;;;;;;23.25;100.00;99016.56;5090954;28;20223;-80
2022/08/20 09:37:15;;;;;;;5.60;5.13;;;;;;;23.07;100.00;99028.53;5088029;28;20262;-80
2022/08/20 09:39:44;;;;;;;6.03;5.53;;;;;;;22.73;100.00;99044.28;5088428;28;20196;-81
2022/08/20 09:42:17;;;;;;;6.60;5.93;;;;;;;22.10;100.00;99043.44;5098540;28;20225;-80
2022/08/20 09:44:46;;;;;;;9.30;7.15;;;;;;;21.88;100.00;99050.38;5136499;27;20663;-80
2022/08/20 09:47:16;;;;;;;7.55;6.82;;;;;;;21.90;100.00;99056.44;5138018;27;20195;-81
2022/08/20 09:49:45;;;;;;;7.80;7.10;;;;;;;22.05;100.00;99048.47;5134757;27;20229;-81
2022/08/20 09:52:18;;;;;;;7.97;7.27;;;;;;;;;;5137628;27;20209;-80
2022/08/20 09:54:46;;;;;;;6.85;6.32;;;;;;;22.18;100.00;99051.47;5134674;27;20191;-81
2022/08/20 09:57:18;;;;;;;6.30;5.80;;;;;;;22.21;100.00;99051.16;5127528;27;20202;-81
2022/08/20 09:59:53;;;;;;;6.07;5.37;;;;;;;22.16;100.00;99058.06;5133533;27;20194;-81
2022/08/20 10:02:23;;;;;;;6.20;5.57;;;;;;;22.37;100.00;99063.72;5128801;27;20201;-80
2022/08/20 10:04:52;;;;;;;5.20;4.80;;;;;;;22.27;100.00;99055.81;5132127;27;20206;-81
2022/08/20 10:07:20;;;;;;;5.20;4.80;;;;;;;22.32;100.00;99049.06;5132826;27;20222;-80
2022/08/20 10:09:49;;;;;;;5.87;4.40;;;;;;;22.30;100.00;99048.41;5130053;27;20194;-80
2022/08/20 10:12:21;;;;;;;4.93;4.53;;;;;;;22.46;100.00;99049.16;5081978;27;20194;-81
2022/08/20 10:14:49;;;;;;;4.90;4.55;;;;;;;22.90;100.00;99045.91;5125706;27;20198;-81
2022/08/20 10:17:18;;;;;;;4.95;4.50;;;;;;;23.11;100.00;99043.38;5131871;27;20194;-81
2022/08/20 10:19:47;;;;;;;4.57;4.22;;;;;;;23.25;100.00;99035.47;5130856;27;20231;-81
2022/08/20 10:22:15;;;;;;;5.88;4.75;;;;;;;23.52;100.00;99029.47;5137173;27;20277;-81
2022/08/20 10:24:44;;;;;;;4.90;4.50;;;;;;;23.99;100.00;99033.72;5131636;27;20202;-81
2022/08/20 10:27:14;;;;;;;5.63;5.18;;;;;;;24.23;100.00;99029.91;5132072;27;20253;-81
2022/08/20 10:29:45;;;;;;;5.05;4.65;;;;;;;24.11;100.00;99029.53;5100283;27;20194;-81
2022/08/20 10:32:16;;;;;;;5.72;5.22;;;;;;;23.95;100.00;99022.47;5102113;27;20265;-81
2022/08/20 10:34:48;;;;;;;5.25;4.85;;;;;;;23.85;100.00;99024.59;5129303;27;20282;-81
2022/08/20 10:37:18;;;;;;;4.38;4.07;;;;;;;23.89;100.00;99025.91;5133939;27;20194;-80
2022/08/20 10:39:48;;;;;;;4.78;4.30;;;;;;;24.02;100.00;99025.22;5133637;27;20218;-81
2022/08/20 10:42:16;;;;;;;4.30;3.90;;;;;;;24.25;100.00;99017.84;5129871;27;20233;-81
2022/08/20 10:44:45;;;;;;;3.92;3.63;;;;;;;24.95;100.00;99010.09;5094720;27;20202;-80
2022/08/20 10:47:20;;;;;;;4.50;4.20;;;;;;;25.26;100.00;99002.47;5136599;27;20301;-81
2022/08/20 10:49:50;;;;;;;3.88;3.58;;;;;;;25.63;100.00;98997.75;5130912;27;20281;-80
2022/08/20 10:52:24;;;;;;;3.75;3.45;;;;;;;25.84;100.00;99003.13;5132045;27;20194;-80
2022/08/20 10:54:52;;;;;;;3.13;2.92;;;;;;;24.75;100.00;99002.63;5135524;27;20194;-81
2022/08/20 10:57:23;;;;;;;3.20;3.00;;;;;;;24.55;100.00;99002.41;5133715;27;20207;-81
2022/08/20 10:59:56;;;;;;;2.90;2.70;;;;;;;25.68;100.00;99000.72;5133050;27;20225;-81
2022/08/20 11:02:26;;;;;;;3.10;2.80;;;;;;;25.87;100.00;98996.47;5129227;27;20226;-80
2022/08/20 11:04:55;;;;;;;2.70;2.50;;;;;;;25.46;100.00;98999.91;5129307;27;20206;-80
2022/08/20 11:07:27;;;;;;;4.97;2.35;;;;;;;25.00;100.00;99011.19;5133395;27;20218;-80
2022/08/20 11:10:16;;;;;;;2.20;2.00;;;;;;;24.87;100.00;99005.63;5137073;27;20246;-80
2022/08/20 11:12:45;;;;;;;2.65;2.45;;;;;;;25.43;100.00;99015.75;5137131;27;20198;-81
2022/08/20 11:15:18;;;;;;;2.80;2.00;;;;;;;26.18;100.00;99004.13;5135050;27;20206;-80
2022/08/20 11:17:46;;;;;;;3.05;1.70;;;;;;;26.29;100.00;99013.56;5136295;27;20295;-80
2022/08/20 11:20:17;;;;;;;3.72;1.73;;;;;;;26.12;100.00;99022.06;5136448;27;20218;-80
2022/08/20 11:22:46;;;;;;;1.70;1.60;;;;;;;26.03;100.00;98998.84;5136306;27;20194;-80
2022/08/20 11:25:16;;;;;;;1.70;1.60;;;;;;;26.03;100.00;99006.97;5131884;27;20198;-80
2022/08/20 11:27:46;;;;;;;2.28;1.85;;;;;;;26.88;100.00;99002.91;5136030;27;20214;-80
2022/08/20 11:30:20;;;;;;;2.17;1.98;;;;;;;27.00;99.51;99000.41;5134755;27;20198;-81
2022/08/20 11:32:49;;;;;;;2.17;1.60;;;;;;;27.06;99.12;99002.31;5136074;27;20193;-80
2022/08/20 11:35:20;;;;;;;1.52;1.42;;;;;;;27.36;95.08;99005.47;5135766;27;20198;-80
2022/08/20 11:38:09;;;;;;;2.17;1.50;;;;;;;27.48;99.85;98998.34;5092684;27;20194;-81
2022/08/20 11:40:37;;;;;;;2.85;1.42;;;;;;;27.57;96.35;98998.97;5130259;27;20209;-80
2022/08/20 11:43:07;;;;;;;3.75;1.45;;;;;;;27.71;96.33;98988.94;5126832;27;20240;-80
2022/08/20 11:45:55;;;;;;;2.10;1.42;;;;;;;28.06;97.34;98992.16;5131789;27;20182;-80